createdAt,value
2023-04-01T00:00:32.136Z,0
2023-04-01T00:01:32.147Z,0
2023-04-01T00:02:32.206Z,0
2023-04-01T00:03:32.369Z,0
2023-04-01T00:04:32.195Z,0
2023-04-01T00:05:32.459Z,0
2023-04-01T00:06:32.150Z,0
2023-04-01T00:07:32.108Z,0
2023-04-01T00:08:32.161Z,0
2023-04-01T00:09:32.144Z,0
2023-04-01T00:10:32.140Z,0
2023-04-01T00:11:32.156Z,0
2023-04-01T00:12:32.147Z,0
2023-04-01T00:13:32.176Z,0
2023-04-01T00:14:32.129Z,0
2023-04-01T00:15:32.340Z,0
2023-04-01T00:16:32.182Z,0
2023-04-01T00:17:32.162Z,0
2023-04-01T00:18:32.149Z,0
2023-04-01T00:19:32.188Z,0
2023-04-01T00:20:32.111Z,0
2023-04-01T00:21:32.143Z,0
2023-04-01T00:22:32.131Z,0
2023-04-01T00:23:32.114Z,0
2023-04-01T00:24:32.156Z,0
2023-04-01T00:25:32.390Z,0
2023-04-01T00:26:32.158Z,0
2023-04-01T00:27:32.143Z,0
2023-04-01T00:28:32.165Z,0
2023-04-01T00:29:32.168Z,0
2023-04-01T00:30:32.160Z,0
2023-04-01T00:31:32.195Z,0
2023-04-01T00:32:32.167Z,0
2023-04-01T00:33:32.140Z,0
2023-04-01T00:34:32.118Z,0
2023-04-01T00:35:32.312Z,0
2023-04-01T00:36:32.199Z,0
2023-04-01T00:37:32.136Z,0
2023-04-01T00:38:32.142Z,0
2023-04-01T00:39:32.241Z,0
2023-04-01T00:40:32.123Z,0
2023-04-01T00:41:32.130Z,0
2023-04-01T00:42:32.126Z,0
2023-04-01T00:43:32.117Z,0
2023-04-01T00:44:32.159Z,0
2023-04-01T00:45:32.504Z,0
2023-04-01T00:46:32.183Z,0
2023-04-01T00:47:32.155Z,0
2023-04-01T00:48:32.146Z,0
2023-04-01T00:49:32.155Z,0
2023-04-01T00:50:32.154Z,0
2023-04-01T00:51:32.159Z,0
2023-04-01T00:52:32.103Z,0
2023-04-01T00:53:32.136Z,0
2023-04-01T00:54:32.144Z,0
2023-04-01T00:55:32.291Z,0
2023-04-01T00:56:32.154Z,0
2023-04-01T00:57:32.251Z,0
2023-04-01T00:58:32.164Z,0
2023-04-01T00:59:32.155Z,0
2023-04-01T01:00:32.098Z,0
2023-04-01T01:01:32.218Z,0
2023-04-01T01:02:32.222Z,0
2023-04-01T01:03:32.112Z,0
2023-04-01T01:04:32.163Z,0
2023-04-01T01:05:34.331Z,0
2023-04-01T01:06:32.171Z,0
2023-04-01T01:07:32.143Z,0
2023-04-01T01:08:32.160Z,0
2023-04-01T01:09:32.145Z,0
2023-04-01T01:10:32.185Z,0
2023-04-01T01:11:37.044Z,0
2023-04-01T01:12:32.179Z,0
2023-04-01T01:13:32.227Z,0
2023-04-01T01:14:32.201Z,0
2023-04-01T01:15:32.353Z,0
2023-04-01T01:16:32.153Z,0
2023-04-01T01:17:32.200Z,0
2023-04-01T01:18:32.121Z,0
2023-04-01T01:19:32.182Z,0
2023-04-01T01:20:32.198Z,0
2023-04-01T01:21:32.133Z,0
2023-04-01T01:22:32.121Z,0
2023-04-01T01:23:32.188Z,0
2023-04-01T01:24:32.139Z,0
2023-04-01T01:25:32.458Z,0
2023-04-01T01:26:32.110Z,0
2023-04-01T01:27:32.188Z,0
2023-04-01T01:28:32.127Z,0
2023-04-01T01:29:32.105Z,0
2023-04-01T01:30:32.185Z,0
2023-04-01T01:31:32.152Z,0
2023-04-01T01:32:32.142Z,0
2023-04-01T01:33:32.114Z,0
2023-04-01T01:34:32.197Z,0
2023-04-01T01:35:32.540Z,0
2023-04-01T01:36:32.179Z,0
2023-04-01T01:37:32.107Z,0
2023-04-01T01:38:32.105Z,0
2023-04-01T01:39:32.158Z,0
2023-04-01T01:40:32.229Z,0
2023-04-01T01:41:32.227Z,0
2023-04-01T01:42:32.278Z,0
2023-04-01T01:43:32.338Z,0
2023-04-01T01:44:32.334Z,0
2023-04-01T01:45:32.523Z,0
2023-04-01T01:46:32.442Z,0
2023-04-01T01:47:32.303Z,0
2023-04-01T01:48:32.266Z,0
2023-04-01T01:49:32.259Z,0
2023-04-01T01:50:32.263Z,0
2023-04-01T01:51:32.319Z,0
2023-04-01T01:52:32.259Z,0
2023-04-01T01:53:32.248Z,0
2023-04-01T01:54:32.341Z,0
2023-04-01T01:55:32.655Z,0
2023-04-01T01:56:32.226Z,0
2023-04-01T01:57:32.215Z,0
2023-04-01T01:58:32.111Z,0
2023-04-01T01:59:32.122Z,0
2023-04-01T02:00:32.178Z,0
2023-04-01T02:01:32.137Z,0
2023-04-01T02:02:32.161Z,0
2023-04-01T02:03:32.147Z,0
2023-04-01T02:04:32.239Z,0
2023-04-01T02:05:32.416Z,0
2023-04-01T02:06:32.120Z,0
2023-04-01T02:07:32.114Z,0
2023-04-01T02:08:32.096Z,0
2023-04-01T02:09:32.140Z,0
2023-04-01T02:10:32.119Z,0
2023-04-01T02:11:32.149Z,0
2023-04-01T02:12:32.125Z,0
2023-04-01T02:13:32.116Z,0
2023-04-01T02:14:32.096Z,0
2023-04-01T02:15:32.277Z,0
2023-04-01T02:16:32.167Z,0
2023-04-01T02:17:32.142Z,0
2023-04-01T02:18:32.146Z,0
2023-04-01T02:19:32.126Z,0
2023-04-01T02:20:32.125Z,0
2023-04-01T02:21:32.157Z,0
2023-04-01T02:22:32.208Z,0
2023-04-01T02:23:32.141Z,0
2023-04-01T02:24:32.169Z,0
2023-04-01T02:25:32.321Z,0
2023-04-01T02:26:32.111Z,0
2023-04-01T02:27:32.142Z,0
2023-04-01T02:28:32.087Z,0
2023-04-01T02:29:32.098Z,0
2023-04-01T02:30:32.112Z,0
2023-04-01T02:31:32.206Z,0
2023-04-01T02:32:32.119Z,0
2023-04-01T02:33:32.083Z,0
2023-04-01T02:34:32.152Z,0
2023-04-01T02:35:32.347Z,0
2023-04-01T02:36:32.104Z,0
2023-04-01T02:37:34.030Z,0
2023-04-01T02:38:32.115Z,0
2023-04-01T02:39:32.103Z,0
2023-04-01T02:40:32.092Z,0
2023-04-01T02:41:32.109Z,0
2023-04-01T02:42:32.133Z,0
2023-04-01T02:43:32.138Z,0
2023-04-01T02:44:32.106Z,0
2023-04-01T02:45:32.269Z,0
2023-04-01T02:46:32.151Z,0
2023-04-01T02:47:32.175Z,0
2023-04-01T02:48:32.105Z,0
2023-04-01T02:49:32.118Z,0
2023-04-01T02:50:32.132Z,0
2023-04-01T02:51:32.688Z,0
2023-04-01T02:52:32.189Z,0
2023-04-01T02:53:32.120Z,0
2023-04-01T02:54:32.171Z,0
2023-04-01T02:55:32.596Z,0
2023-04-01T02:56:32.124Z,0
2023-04-01T02:57:32.139Z,0
2023-04-01T02:58:32.169Z,0
2023-04-01T02:59:32.118Z,0
2023-04-01T03:00:32.116Z,0
2023-04-01T03:01:32.152Z,0
2023-04-01T03:02:32.242Z,0
2023-04-01T03:03:32.149Z,0
2023-04-01T03:04:32.116Z,0
2023-04-01T03:05:32.666Z,0
2023-04-01T03:06:32.138Z,0
2023-04-01T03:07:32.142Z,0
2023-04-01T03:08:32.114Z,0
2023-04-01T03:09:32.133Z,0
2023-04-01T03:10:32.253Z,0
2023-04-01T03:11:32.228Z,0
2023-04-01T03:12:32.275Z,0
2023-04-01T03:13:32.164Z,0
2023-04-01T03:14:32.176Z,0
2023-04-01T03:15:32.416Z,0
2023-04-01T03:16:32.265Z,0
2023-04-01T03:17:32.136Z,0
2023-04-01T03:18:32.133Z,0
2023-04-01T03:19:32.120Z,0
2023-04-01T03:20:32.219Z,0
2023-04-01T03:21:32.159Z,0
2023-04-01T03:22:32.128Z,0
2023-04-01T03:23:32.168Z,0
2023-04-01T03:24:32.250Z,0
2023-04-01T03:25:32.364Z,0
2023-04-01T03:26:32.169Z,0
2023-04-01T03:27:32.234Z,0
2023-04-01T03:28:32.109Z,0
2023-04-01T03:29:32.226Z,0
2023-04-01T03:30:32.135Z,0
2023-04-01T03:31:32.382Z,0
2023-04-01T03:32:32.127Z,0
2023-04-01T03:33:32.196Z,0
2023-04-01T03:34:32.130Z,0
2023-04-01T03:35:32.308Z,0
2023-04-01T03:36:32.336Z,0
2023-04-01T03:37:32.134Z,0
2023-04-01T03:38:32.159Z,0
2023-04-01T03:39:32.273Z,0
2023-04-01T03:40:32.129Z,0
2023-04-01T03:41:32.101Z,0
2023-04-01T03:42:32.231Z,0
2023-04-01T03:43:32.140Z,0
2023-04-01T03:44:32.198Z,0
2023-04-01T03:45:32.413Z,0
2023-04-01T03:46:32.365Z,0
2023-04-01T03:47:32.269Z,0
2023-04-01T03:48:32.187Z,0
2023-04-01T03:49:32.104Z,0
2023-04-01T03:50:32.258Z,0
2023-04-01T03:51:32.114Z,0
2023-04-01T03:52:32.094Z,0
2023-04-01T03:53:32.117Z,0
2023-04-01T03:54:32.153Z,0
2023-04-01T03:55:32.339Z,0
2023-04-01T03:56:32.097Z,0
2023-04-01T03:57:32.307Z,0
2023-04-01T03:58:32.152Z,0
2023-04-01T03:59:32.101Z,0
2023-04-01T04:00:32.103Z,0
2023-04-01T04:01:32.099Z,0
2023-04-01T04:02:32.284Z,0
2023-04-01T04:03:32.268Z,0
2023-04-01T04:04:32.142Z,0
2023-04-01T04:05:32.385Z,0
2023-04-01T04:06:32.127Z,0
2023-04-01T04:07:32.143Z,0
2023-04-01T04:08:32.111Z,0
2023-04-01T04:09:32.106Z,0
2023-04-01T04:10:32.133Z,0
2023-04-01T04:11:32.128Z,0
2023-04-01T04:12:32.108Z,0
2023-04-01T04:13:32.074Z,0
2023-04-01T04:14:32.096Z,0.36
2023-04-01T04:15:32.320Z,0
2023-04-01T04:16:32.228Z,0.36
2023-04-01T04:17:32.138Z,0.36
2023-04-01T04:18:32.184Z,0.85
2023-04-01T04:19:32.110Z,1.22
2023-04-01T04:20:32.106Z,0.85
2023-04-01T04:21:32.105Z,0.85
2023-04-01T04:22:32.142Z,0.85
2023-04-01T04:23:32.122Z,1.22
2023-04-01T04:24:32.084Z,1.71
2023-04-01T04:25:32.271Z,2.57
2023-04-01T04:26:32.115Z,2.08
2023-04-01T04:27:32.091Z,2.08
2023-04-01T04:28:32.097Z,2.08
2023-04-01T04:29:32.081Z,2.57
2023-04-01T04:30:32.092Z,3.43
2023-04-01T04:31:32.153Z,2.94
2023-04-01T04:32:32.136Z,3.43
2023-04-01T04:33:32.101Z,3.79
2023-04-01T04:34:32.125Z,4.28
2023-04-01T04:35:32.399Z,3.43
2023-04-01T04:36:32.076Z,3.43
2023-04-01T04:37:32.122Z,4.77
2023-04-01T04:38:32.151Z,4.28
2023-04-01T04:39:32.099Z,5.14
2023-04-01T04:40:32.117Z,4.28
2023-04-01T04:41:32.097Z,5.63
2023-04-01T04:42:32.127Z,5.14
2023-04-01T04:43:32.116Z,5.99
2023-04-01T04:44:32.087Z,6.85
2023-04-01T04:45:32.457Z,7.34
2023-04-01T04:46:32.147Z,6.85
2023-04-01T04:47:32.150Z,7.34
2023-04-01T04:48:32.110Z,7.34
2023-04-01T04:49:32.086Z,6.85
2023-04-01T04:50:32.130Z,8.19
2023-04-01T04:51:32.094Z,8.19
2023-04-01T04:52:32.084Z,8.19
2023-04-01T04:53:32.125Z,8.56
2023-04-01T04:54:32.098Z,8.56
2023-04-01T04:55:32.310Z,8.56
2023-04-01T04:56:32.092Z,10.39
2023-04-01T04:57:32.194Z,9.91
2023-04-01T04:58:32.135Z,9.91
2023-04-01T04:59:32.087Z,9.91
2023-04-01T05:00:32.199Z,10.39
2023-04-01T05:01:32.188Z,10.77
2023-04-01T05:02:32.212Z,10.77
2023-04-01T05:03:32.228Z,12.11
2023-04-01T05:04:32.089Z,11.62
2023-04-01T05:05:32.285Z,12.48
2023-04-01T05:06:32.099Z,12.11
2023-04-01T05:07:32.104Z,13.33
2023-04-01T05:08:32.099Z,12.97
2023-04-01T05:09:32.097Z,13.82
2023-04-01T05:10:32.122Z,14.31
2023-04-01T05:11:32.102Z,13.82
2023-04-01T05:12:32.117Z,14.31
2023-04-01T05:13:32.092Z,13.82
2023-04-01T05:14:32.128Z,15.17
2023-04-01T05:15:32.364Z,15.53
2023-04-01T05:16:32.133Z,16.02
2023-04-01T05:17:32.174Z,16.39
2023-04-01T05:18:32.086Z,16.39
2023-04-01T05:19:32.104Z,16.39
2023-04-01T05:20:32.118Z,16.02
2023-04-01T05:21:32.112Z,16.39
2023-04-01T05:22:32.132Z,16.39
2023-04-01T05:23:32.109Z,17.25
2023-04-01T05:24:32.087Z,19.45
2023-04-01T05:25:32.444Z,19.94
2023-04-01T05:26:32.123Z,20.8
2023-04-01T05:27:32.098Z,20.8
2023-04-01T05:28:32.113Z,20.31
2023-04-01T05:29:32.128Z,20.31
2023-04-01T05:30:32.093Z,22.02
2023-04-01T05:31:32.246Z,21.16
2023-04-01T05:32:32.127Z,21.65
2023-04-01T05:33:32.116Z,22.87
2023-04-01T05:34:32.126Z,22.87
2023-04-01T05:35:32.427Z,22.02
2023-04-01T05:36:32.082Z,23.36
2023-04-01T05:37:32.109Z,24.71
2023-04-01T05:38:32.096Z,23.36
2023-04-01T05:39:32.113Z,24.22
2023-04-01T05:40:32.102Z,24.22
2023-04-01T05:41:32.104Z,24.71
2023-04-01T05:42:32.098Z,23.85
2023-04-01T05:43:32.093Z,24.22
2023-04-01T05:44:32.152Z,25.07
2023-04-01T05:45:32.447Z,28.14
2023-04-01T05:46:32.087Z,28.63
2023-04-01T05:47:32.131Z,29.85
2023-04-01T05:48:32.109Z,31.56
2023-04-01T05:49:32.149Z,33.76
2023-04-01T05:50:32.117Z,38.53
2023-04-01T05:51:32.122Z,41.1
2023-04-01T05:52:32.103Z,45.87
2023-04-01T05:53:32.151Z,45.87
2023-04-01T05:54:32.088Z,43.8
2023-04-01T05:55:32.313Z,43.31
2023-04-01T05:56:32.090Z,44.16
2023-04-01T05:57:32.180Z,45.02
2023-04-01T05:58:32.076Z,41.59
2023-04-01T05:59:32.091Z,37.68
2023-04-01T06:00:32.100Z,41.59
2023-04-01T06:01:32.124Z,45.51
2023-04-01T06:02:32.166Z,53.34
2023-04-01T06:03:32.261Z,53.7
2023-04-01T06:04:32.163Z,46.73
2023-04-01T06:05:32.362Z,48.56
2023-04-01T06:06:32.073Z,51.14
2023-04-01T06:07:32.098Z,46.36
2023-04-01T06:08:32.073Z,45.51
2023-04-01T06:09:32.107Z,56.76
2023-04-01T06:10:32.130Z,61.53
2023-04-01T06:11:32.098Z,59.33
2023-04-01T06:12:32.102Z,66.31
2023-04-01T06:13:32.138Z,73.65
2023-04-01T06:14:32.132Z,76.34
2023-04-01T06:15:32.357Z,53.7
2023-04-01T06:16:32.128Z,59.82
2023-04-01T06:17:32.100Z,73.28
2023-04-01T06:18:32.104Z,98.36
2023-04-01T06:19:32.097Z,93.22
2023-04-01T06:20:32.082Z,81.48
2023-04-01T06:21:32.150Z,78.41
2023-04-01T06:22:32.073Z,80.62
2023-04-01T06:23:32.148Z,79.76
2023-04-01T06:24:32.117Z,79.76
2023-04-01T06:25:32.501Z,85.02
2023-04-01T06:26:32.110Z,94.93
2023-04-01T06:27:32.106Z,106.68
2023-04-01T06:28:32.094Z,100.19
2023-04-01T06:29:32.104Z,67.65
2023-04-01T06:30:32.092Z,36.82
2023-04-01T06:31:32.212Z,46.73
2023-04-01T06:32:32.159Z,71.07
2023-04-01T06:33:32.117Z,89.79
2023-04-01T06:34:32.092Z,115.36
2023-04-01T06:35:32.371Z,103.13
2023-04-01T06:36:32.095Z,87.1
2023-04-01T06:37:32.113Z,88.45
2023-04-01T06:38:32.113Z,104.96
2023-04-01T06:39:32.118Z,99.7
2023-04-01T06:40:32.081Z,90.65
2023-04-01T06:41:32.075Z,102.76
2023-04-01T06:42:32.114Z,101.05
2023-04-01T06:43:32.123Z,107.53
2023-04-01T06:44:32.088Z,103.61
2023-04-01T06:45:32.548Z,84.04
2023-04-01T06:46:32.218Z,71.93
2023-04-01T06:47:32.352Z,72.42
2023-04-01T06:48:32.130Z,95.42
2023-04-01T06:49:32.071Z,133.95
2023-04-01T06:50:32.092Z,158.3
2023-04-01T06:51:32.101Z,141.42
2023-04-01T06:52:32.069Z,107.04
2023-04-01T06:53:32.095Z,112.67
2023-04-01T06:54:32.065Z,111.82
2023-04-01T06:55:32.291Z,119.64
2023-04-01T06:56:32.074Z,148.27
2023-04-01T06:57:32.360Z,149.98
2023-04-01T06:58:32.096Z,164.78
2023-04-01T06:59:32.114Z,186.93
2023-04-01T07:00:32.213Z,197.81
2023-04-01T07:01:32.378Z,180.44
2023-04-01T07:02:32.121Z,153.04
2023-04-01T07:03:32.117Z,178.24
2023-04-01T07:04:32.119Z,192.07
2023-04-01T07:05:32.238Z,195.98
2023-04-01T07:06:32.083Z,196.84
2023-04-01T07:07:32.110Z,203.44
2023-04-01T07:08:32.091Z,200.75
2023-04-01T07:09:32.091Z,177.75
2023-04-01T07:10:32.061Z,169.07
2023-04-01T07:11:32.174Z,160.02
2023-04-01T07:12:32.078Z,164.78
2023-04-01T07:13:32.075Z,212.13
2023-04-01T07:14:32.084Z,241.61
2023-04-01T07:15:32.370Z,226.81
2023-04-01T07:16:32.092Z,186.44
2023-04-01T07:17:32.077Z,176.9
2023-04-01T07:18:32.085Z,203.81
2023-04-01T07:19:32.102Z,187.29
2023-04-01T07:20:32.079Z,166.5
2023-04-01T07:21:33.582Z,172.61
2023-04-01T07:22:32.082Z,222.9
2023-04-01T07:23:32.098Z,241.61
2023-04-01T07:24:32.088Z,201.24
2023-04-01T07:25:32.265Z,160.51
2023-04-01T07:26:32.083Z,193.05
2023-04-01T07:27:32.107Z,216.9
2023-04-01T07:28:32.102Z,198.18
2023-04-01T07:29:32.083Z,216.41
2023-04-01T07:30:32.086Z,236.35
2023-04-01T07:31:32.145Z,236.35
2023-04-01T07:32:33.743Z,278.07
2023-04-01T07:33:32.063Z,300.95
2023-04-01T07:34:32.076Z,304
2023-04-01T07:35:32.534Z,300.58
2023-04-01T07:36:32.084Z,318.32
2023-04-01T07:37:32.140Z,307.06
2023-04-01T07:38:32.103Z,304
2023-04-01T07:39:32.083Z,300.58
2023-04-01T07:40:32.060Z,298.01
2023-04-01T07:41:32.083Z,298.37
2023-04-01T07:42:32.092Z,302.29
2023-04-01T07:43:32.106Z,311.47
2023-04-01T07:44:32.077Z,320.52
2023-04-01T07:45:32.500Z,323.95
2023-04-01T07:46:32.129Z,322.72
2023-04-01T07:47:32.112Z,319.66
2023-04-01T07:48:32.103Z,319.17
2023-04-01T07:49:32.112Z,325.29
2023-04-01T07:50:32.088Z,334.83
2023-04-01T07:51:32.144Z,339.61
2023-04-01T07:52:32.059Z,337.89
2023-04-01T07:53:32.122Z,325.78
2023-04-01T07:54:32.093Z,307.06
2023-04-01T07:55:32.568Z,294.95
2023-04-01T07:56:32.161Z,291.89
2023-04-01T07:57:32.206Z,307.55
2023-04-01T07:58:32.130Z,324.44
2023-04-01T07:59:32.147Z,333.49
2023-04-01T08:00:32.163Z,348.29
2023-04-01T08:01:32.093Z,357.83
2023-04-01T08:02:32.164Z,362.6
2023-04-01T08:03:32.193Z,362.12
2023-04-01T08:04:32.150Z,364.32
2023-04-01T08:05:32.422Z,367.01
2023-04-01T08:06:32.105Z,368.72
2023-04-01T08:07:32.093Z,371.29
2023-04-01T08:08:32.120Z,371.78
2023-04-01T08:09:32.089Z,374.35
2023-04-01T08:10:32.057Z,376.55
2023-04-01T08:11:32.094Z,376.06
2023-04-01T08:12:32.057Z,378.26
2023-04-01T08:13:32.092Z,378.26
2023-04-01T08:14:32.030Z,379.98
2023-04-01T08:15:32.340Z,383.4
2023-04-01T08:16:32.094Z,384.74
2023-04-01T08:17:32.137Z,387.32
2023-04-01T08:18:32.103Z,389.52
2023-04-01T08:19:32.149Z,390.86
2023-04-01T08:20:32.067Z,393.43
2023-04-01T08:21:32.051Z,166.99
2023-04-01T08:22:32.125Z,310.12
2023-04-01T08:23:32.116Z,391.72
2023-04-01T08:24:44.484Z,394.66
2023-04-01T08:25:32.307Z,392.94
2023-04-01T08:26:32.073Z,392.94
2023-04-01T08:27:32.081Z,396
2023-04-01T08:28:32.087Z,402.49
2023-04-01T08:29:32.053Z,401.63
2023-04-01T08:30:32.157Z,426.34
2023-04-01T08:31:32.116Z,402.98
2023-04-01T08:32:32.141Z,408.11
2023-04-01T08:33:32.066Z,411.66
2023-04-01T08:34:32.072Z,415.08
2023-04-01T08:35:33.023Z,412.52
2023-04-01T08:36:32.145Z,415.08
2023-04-01T08:37:32.067Z,418.15
2023-04-01T08:38:32.158Z,421.2
2023-04-01T08:39:32.091Z,422.91
2023-04-01T08:40:32.069Z,426.34
2023-04-01T08:41:32.083Z,427.2
2023-04-01T08:42:32.053Z,431.97
2023-04-01T08:43:32.084Z,431.11
2023-04-01T08:44:32.094Z,431.11
2023-04-01T08:45:32.548Z,428.54
2023-04-01T08:46:32.073Z,429.89
2023-04-01T08:47:32.096Z,430.25
2023-04-01T08:48:32.085Z,433.31
2023-04-01T08:49:32.062Z,435.88
2023-04-01T08:50:32.060Z,437.23
2023-04-01T08:51:32.118Z,434.66
2023-04-01T08:52:32.081Z,436.37
2023-04-01T08:53:32.077Z,437.23
2023-04-01T08:54:32.090Z,424.26
2023-04-01T08:55:32.445Z,390.37
2023-04-01T08:56:32.091Z,445.42
2023-04-01T08:57:32.147Z,379.98
2023-04-01T08:58:32.080Z,387.81
2023-04-01T08:59:32.102Z,403.83
2023-04-01T09:00:32.126Z,399.91
2023-04-01T09:01:32.045Z,379.98
2023-04-01T09:02:32.194Z,416.43
2023-04-01T09:03:32.147Z,414.23
2023-04-01T09:04:32.208Z,350.86
2023-04-01T09:05:32.338Z,303.64
2023-04-01T09:06:32.050Z,333.49
2023-04-01T09:07:32.091Z,332.27
2023-04-01T09:08:32.069Z,387.81
2023-04-01T09:09:32.069Z,384.74
2023-04-01T09:10:32.134Z,402.49
2023-04-01T09:11:32.130Z,266.32
2023-04-01T09:12:32.081Z,267.55
2023-04-01T09:13:32.064Z,397.71
2023-04-01T09:14:32.064Z,349.64
2023-04-01T09:15:32.380Z,377.77
2023-04-01T09:16:32.132Z,344.86
2023-04-01T09:17:32.090Z,405.54
2023-04-01T09:18:32.089Z,395.64
2023-04-01T09:19:32.093Z,450.2
2023-04-01T09:20:32.072Z,466.71
2023-04-01T09:21:32.124Z,401.26
2023-04-01T09:22:32.081Z,458.03
2023-04-01T09:23:32.099Z,470.62
2023-04-01T09:24:32.057Z,387.32
2023-04-01T09:25:32.256Z,425.49
2023-04-01T09:26:32.172Z,440.66
2023-04-01T09:27:32.084Z,416.43
2023-04-01T09:28:32.091Z,419.49
2023-04-01T09:29:32.068Z,471.97
2023-04-01T09:30:32.114Z,488.86
2023-04-01T09:31:32.118Z,489.71
2023-04-01T09:32:32.107Z,414.72
2023-04-01T09:33:32.056Z,341.32
2023-04-01T09:34:32.086Z,440.66
2023-04-01T09:35:32.430Z,372.15
2023-04-01T09:36:32.055Z,415.94
2023-04-01T09:37:32.077Z,326.64
2023-04-01T09:38:32.150Z,353.55
2023-04-01T09:39:32.114Z,353.91
2023-04-01T09:40:32.059Z,427.69
2023-04-01T09:41:32.147Z,399.91
2023-04-01T09:42:32.094Z,456.31
2023-04-01T09:43:32.065Z,470.62
2023-04-01T09:44:32.111Z,476.25
2023-04-01T09:45:32.355Z,435.88
2023-04-01T09:46:32.123Z,472.83
2023-04-01T09:47:32.181Z,451.05
2023-04-01T09:48:32.079Z,323.95
2023-04-01T09:49:32.073Z,357.83
2023-04-01T09:50:32.147Z,425.97
2023-04-01T09:51:32.097Z,461.08
2023-04-01T09:52:32.066Z,333.98
2023-04-01T09:53:32.074Z,483.59
2023-04-01T09:54:32.099Z,452.89
2023-04-01T09:55:32.267Z,476.25
2023-04-01T09:56:33.087Z,459.74
2023-04-01T09:57:32.201Z,458.03
2023-04-01T09:58:32.082Z,451.05
2023-04-01T09:59:32.080Z,447.62
2023-04-01T10:00:32.058Z,451.05
2023-04-01T10:01:32.105Z,474.05
2023-04-01T10:02:32.105Z,310.12
2023-04-01T10:03:32.068Z,292.38
2023-04-01T10:04:32.126Z,324.44
2023-04-01T10:05:32.327Z,316.24
2023-04-01T10:06:32.083Z,284.92
2023-04-01T10:07:32.061Z,304.49
2023-04-01T10:08:32.082Z,379.49
2023-04-01T10:09:32.044Z,366.03
2023-04-01T10:10:32.080Z,382.18
2023-04-01T10:11:32.070Z,415.94
2023-04-01T10:12:32.071Z,333.98
2023-04-01T10:13:32.104Z,402.49
2023-04-01T10:14:32.091Z,362.12
2023-04-01T10:15:32.473Z,448.97
2023-04-01T10:16:32.162Z,366.52
2023-04-01T10:17:32.163Z,343.52
2023-04-01T10:18:32.104Z,391.72
2023-04-01T10:19:32.057Z,446.77
2023-04-01T10:20:32.045Z,407.74
2023-04-01T10:21:32.045Z,265.83
2023-04-01T10:22:32.130Z,278.07
2023-04-01T10:23:32.064Z,261.07
2023-04-01T10:24:32.092Z,202.1
2023-04-01T10:25:32.479Z,235.98
2023-04-01T10:26:32.113Z,235
2023-04-01T10:27:32.047Z,217.27
2023-04-01T10:28:32.090Z,334.83
2023-04-01T10:29:32.068Z,214.7
2023-04-01T10:30:32.089Z,275.01
2023-04-01T10:31:32.116Z,270.61
2023-04-01T10:32:32.103Z,307.55
2023-04-01T10:33:32.059Z,259.35
2023-04-01T10:34:32.099Z,263.27
2023-04-01T10:35:32.393Z,229.38
2023-04-01T10:36:32.054Z,150.47
2023-04-01T10:37:32.080Z,193.05
2023-04-01T10:38:32.065Z,282.35
2023-04-01T10:39:32.047Z,172.61
2023-04-01T10:40:32.035Z,139.58
2023-04-01T10:41:32.054Z,197.32
2023-04-01T10:42:32.083Z,278.93
2023-04-01T10:43:32.070Z,216.9
2023-04-01T10:44:32.047Z,161.36
2023-04-01T10:45:32.320Z,192.56
2023-04-01T10:46:32.176Z,181.67
2023-04-01T10:47:32.108Z,182.15
2023-04-01T10:48:32.099Z,114.02
2023-04-01T10:49:32.053Z,55.9
2023-04-01T10:50:32.080Z,143.5
2023-04-01T10:51:32.057Z,61.17
2023-04-01T10:52:32.058Z,253.24
2023-04-01T10:53:32.052Z,232.93
2023-04-01T10:54:32.112Z,248.95
2023-04-01T10:55:32.344Z,217.76
2023-04-01T10:56:32.058Z,186.07
2023-04-01T10:57:32.184Z,170.05
2023-04-01T10:58:32.073Z,104.1
2023-04-01T10:59:32.035Z,104.48
2023-04-01T11:00:32.038Z,82.33
2023-04-01T11:01:32.189Z,53.34
2023-04-01T11:02:32.170Z,52.85
2023-04-01T11:03:32.211Z,54.19
2023-04-01T11:04:32.053Z,101.9
2023-04-01T11:05:32.108Z,419
2023-04-01T11:06:32.077Z,368.72
2023-04-01T11:07:32.046Z,455.45
2023-04-01T11:08:32.066Z,346.95
2023-04-01T11:09:32.065Z,394.29
2023-04-01T11:10:32.080Z,369.08
2023-04-01T11:11:32.089Z,451.05
2023-04-01T11:12:32.083Z,415.94
2023-04-01T11:13:32.045Z,412.88
2023-04-01T11:14:32.044Z,340.95
2023-04-01T11:15:32.422Z,335.32
2023-04-01T11:16:32.161Z,284.92
2023-04-01T11:17:32.144Z,282.35
2023-04-01T11:18:32.089Z,201.24
2023-04-01T11:19:32.072Z,291.4
2023-04-01T11:20:32.089Z,269.38
2023-04-01T11:21:32.073Z,143.13
2023-04-01T11:22:32.078Z,237.21
2023-04-01T11:23:32.076Z,225.1
2023-04-01T11:24:32.056Z,249.81
2023-04-01T11:25:32.378Z,291.89
2023-04-01T11:26:32.071Z,395.64
2023-04-01T11:27:32.085Z,312.32
2023-04-01T11:28:32.061Z,356.98
2023-04-01T11:29:32.092Z,243.32
2023-04-01T11:30:32.076Z,205.15
2023-04-01T11:31:32.109Z,156.95
2023-04-01T11:32:32.137Z,186.07
2023-04-01T11:33:32.061Z,183.5
2023-04-01T11:34:32.069Z,176.9
2023-04-01T11:35:32.343Z,225.1
2023-04-01T11:36:32.064Z,319.17
2023-04-01T11:37:32.074Z,203.81
2023-04-01T11:38:32.073Z,207.73
2023-04-01T11:39:32.069Z,248.1
2023-04-01T11:40:32.113Z,217.27
2023-04-01T11:41:32.046Z,206.01
2023-04-01T11:42:32.095Z,227.66
2023-04-01T11:43:33.896Z,244.67
2023-04-01T11:44:32.053Z,375.57
2023-04-01T11:45:32.308Z,402.98
2023-04-01T11:46:32.148Z,387.32
2023-04-01T11:47:32.085Z,372.64
2023-04-01T11:48:32.062Z,376.55
2023-04-01T11:49:32.041Z,414.23
2023-04-01T11:50:32.097Z,431.11
2023-04-01T11:51:32.090Z,437.72
2023-04-01T11:52:32.077Z,464.14
2023-04-01T11:53:32.039Z,401.63
2023-04-01T11:54:32.068Z,399.91
2023-04-01T11:55:32.258Z,471.11
2023-04-01T11:56:32.067Z,461.57
2023-04-01T11:57:32.545Z,429.03
2023-04-01T11:58:32.092Z,438.08
2023-04-01T11:59:32.087Z,406.89
2023-04-01T12:00:32.087Z,410.32
2023-04-01T12:01:32.045Z,386.09
2023-04-01T12:02:32.161Z,278.07
2023-04-01T12:03:32.311Z,316.24
2023-04-01T12:04:32.077Z,266.69
2023-04-01T12:05:32.431Z,313.54
2023-04-01T12:06:32.127Z,353.91
2023-04-01T12:07:32.005Z,258.98
2023-04-01T12:08:32.052Z,241.98
2023-04-01T12:09:32.032Z,344.37
2023-04-01T12:10:32.076Z,392.08
2023-04-01T12:11:32.046Z,438.08
2023-04-01T12:12:32.022Z,435.03
2023-04-01T12:13:32.104Z,401.26
2023-04-01T12:14:32.017Z,320.52
2023-04-01T12:15:32.372Z,328.71
2023-04-01T12:16:32.095Z,330.55
2023-04-01T12:17:32.098Z,317.46
2023-04-01T12:18:32.064Z,349.64
2023-04-01T12:19:32.063Z,356.98
2023-04-01T12:20:32.046Z,322.72
2023-04-01T12:21:32.105Z,215.56
2023-04-01T12:22:33.792Z,198.67
2023-04-01T12:23:32.075Z,217.76
2023-04-01T12:24:32.040Z,228.52
2023-04-01T12:25:32.453Z,257.64
2023-04-01T12:26:32.052Z,241.98
2023-04-01T12:27:32.060Z,309.27
2023-04-01T12:28:32.047Z,255.07
2023-04-01T12:29:32.059Z,420.71
2023-04-01T12:30:32.051Z,424.63
2023-04-01T12:31:32.120Z,415.08
2023-04-01T12:32:32.074Z,304.49
2023-04-01T12:33:32.056Z,410.32
2023-04-01T12:34:32.043Z,432.45
2023-04-01T12:35:32.496Z,406.89
2023-04-01T12:36:32.033Z,397.35
2023-04-01T12:37:32.062Z,402.12
2023-04-01T12:38:32.058Z,380.83
2023-04-01T12:39:32.073Z,402.98
2023-04-01T12:40:32.478Z,388.66
2023-04-01T12:41:32.044Z,373.86
2023-04-01T12:42:32.071Z,330.06
2023-04-01T12:43:32.060Z,361.74
2023-04-01T12:44:32.030Z,363.95
2023-04-01T12:45:32.299Z,367.01
2023-04-01T12:46:32.098Z,378.26
2023-04-01T12:47:32.082Z,382.18
2023-04-01T12:48:32.058Z,391.23
2023-04-01T12:49:32.079Z,390.37
2023-04-01T12:50:32.035Z,383.4
2023-04-01T12:51:32.048Z,380.34
2023-04-01T12:52:32.025Z,379.49
2023-04-01T12:53:32.064Z,383.03
2023-04-01T12:54:32.038Z,386.46
2023-04-01T12:55:32.194Z,390.37
2023-04-01T12:56:32.040Z,370.8
2023-04-01T12:57:32.278Z,363.95
2023-04-01T12:58:32.050Z,375.57
2023-04-01T12:59:32.047Z,194.27
2023-04-01T13:00:32.024Z,166.5
2023-04-01T13:01:32.076Z,150.96
2023-04-01T13:02:32.066Z,163.44
2023-04-01T13:03:32.089Z,170.9
2023-04-01T13:04:32.069Z,169.56
2023-04-01T13:05:32.292Z,159.16
2023-04-01T13:06:32.063Z,193.41
2023-04-01T13:07:32.081Z,161.36
2023-04-01T13:08:32.003Z,291.4
2023-04-01T13:09:32.061Z,265.83
2023-04-01T13:10:32.192Z,195.98
2023-04-01T13:11:32.065Z,52.85
2023-04-01T13:12:32.173Z,60.68
2023-04-01T13:13:32.053Z,200.39
2023-04-01T13:14:32.459Z,59.82
2023-04-01T13:15:32.091Z,288.47
2023-04-01T13:16:32.060Z,250.3